Airfield :
LOGIN :

Register | Disclaimer

   EN    FR    IT 

 










Legend :    VFR   Marginal VFR   IFR   Intensive IFR   Very Intensive IFR
Visi :
Ceiling :
>= 8 km
>= 3000ft
5 to 8 km
1000 to 3000 ft
1500m to 5 km
500 to 1000 ft
800 to 1500m
200 to 500 ft
< 800m
< 200 ft
Symbols :   Thunderstorms  Fog  Heavy snow  Heavy precipitations  Wind > 20 kt
SIGMETs :     Misc.  Thunderstorms  Icing  Turbulence  Mountain Waves  Volcanic Ashes






- Airport Elevation : 479 ft
- IATA code : KEV


EFHA - Halli

CURRENT METAR :
  • 272350Z AUTO 32003KT 300V360 CAVOK M12/M14 Q1000

EXPIRED METARs :
  • 272320Z AUTO 34002KT CAVOK M11/M14 Q1000
  • 272250Z AUTO 04004KT CAVOK M11/M13 Q1000
  • 272220Z AUTO 06004KT CAVOK M09/M13 Q1000
  • 272150Z AUTO 04004KT CAVOK M11/M15 Q1000
  • 272120Z AUTO 05005KT CAVOK M08/M13 Q1000

Expired Forecast.



MET'MAP, your aeronautical weather chart ! - Copyright ORBIFLY December 2007 - Disclaimer

ORBIFLY MET'MAP TEAM :

Programming & Development : Alexandra Zaïnal
Concept & original design : Baudouin d'Aumeries
Assistance for programming : Marc-Olivier Méhu
Technical & hardware support : Manuel Goepfert

Contact : metmap@orbifly.com




SOURCES & CREDITS :

   NOAA